sensor_id;sensor_type;location;lat;lon;timestamp;P1;durP1;ratioP1;P2;durP2;ratioP2
4355;SDS011;2191;51.482;7.408;2022-07-21T00:01:28;12.23;;;7.87;;
4355;SDS011;2191;51.482;7.408;2022-07-21T00:03:58;9.77;;;8.87;;
4355;SDS011;2191;51.482;7.408;2022-07-21T00:06:28;12.57;;;9.60;;
4355;SDS011;2191;51.482;7.408;2022-07-21T00:08:58;12.90;;;9.23;;
4355;SDS011;2191;51.482;7.408;2022-07-21T00:11:29;10.60;;;8.23;;
4355;SDS011;2191;51.482;7.408;2022-07-21T00:13:57;9.57;;;8.50;;
4355;SDS011;2191;51.482;7.408;2022-07-21T00:16:25;11.33;;;9.63;;
4355;SDS011;2191;51.482;7.408;2022-07-21T00:18:53;10.63;;;9.53;;
4355;SDS011;2191;51.482;7.408;2022-07-21T00:21:27;13.90;;;9.33;;
4355;SDS011;2191;51.482;7.408;2022-07-21T00:23:57;11.00;;;9.87;;
4355;SDS011;2191;51.482;7.408;2022-07-21T00:26:25;11.70;;;9.83;;
4355;SDS011;2191;51.482;7.408;2022-07-21T00:28:53;10.23;;;9.20;;
4355;SDS011;2191;51.482;7.408;2022-07-21T00:31:29;13.57;;;10.70;;
4355;SDS011;2191;51.482;7.408;2022-07-21T00:34:04;12.80;;;11.40;;
4355;SDS011;2191;51.482;7.408;2022-07-21T00:36:33;14.27;;;11.57;;
4355;SDS011;2191;51.482;7.408;2022-07-21T00:39:12;13.60;;;11.13;;
4355;SDS011;2191;51.482;7.408;2022-07-21T00:41:39;13.33;;;12.00;;
4355;SDS011;2191;51.482;7.408;2022-07-21T00:44:18;13.90;;;11.17;;
4355;SDS011;2191;51.482;7.408;2022-07-21T00:46:52;13.97;;;11.40;;
4355;SDS011;2191;51.482;7.408;2022-07-21T00:49:20;16.87;;;13.23;;
4355;SDS011;2191;51.482;7.408;2022-07-21T00:51:52;14.80;;;12.93;;
4355;SDS011;2191;51.482;7.408;2022-07-21T00:54:23;14.60;;;11.30;;
4355;SDS011;2191;51.482;7.408;2022-07-21T00:56:51;16.57;;;14.67;;
4355;SDS011;2191;51.482;7.408;2022-07-21T00:59:22;18.30;;;13.37;;
4355;SDS011;2191;51.482;7.408;2022-07-21T01:01:50;14.80;;;11.57;;
4355;SDS011;2191;51.482;7.408;2022-07-21T01:04:18;18.30;;;13.17;;
4355;SDS011;2191;51.482;7.408;2022-07-21T01:06:50;17.43;;;14.73;;
4355;SDS011;2191;51.482;7.408;2022-07-21T01:09:19;14.13;;;10.53;;
4355;SDS011;2191;51.482;7.408;2022-07-21T01:12:01;11.03;;;9.40;;
4355;SDS011;2191;51.482;7.408;2022-07-21T01:14:31;10.33;;;8.20;;
4355;SDS011;2191;51.482;7.408;2022-07-21T01:17:00;13.37;;;8.27;;
4355;SDS011;2191;51.482;7.408;2022-07-21T01:19:36;9.23;;;8.30;;
4355;SDS011;2191;51.482;7.408;2022-07-21T01:22:08;11.30;;;8.03;;
4355;SDS011;2191;51.482;7.408;2022-07-21T01:24:38;10.47;;;7.93;;
4355;SDS011;2191;51.482;7.408;2022-07-21T01:27:17;9.80;;;8.23;;
4355;SDS011;2191;51.482;7.408;2022-07-21T01:29:45;10.60;;;8.40;;
4355;SDS011;2191;51.482;7.408;2022-07-21T01:32:13;12.10;;;7.70;;
4355;SDS011;2191;51.482;7.408;2022-07-21T01:34:44;9.10;;;7.70;;
4355;SDS011;2191;51.482;7.408;2022-07-21T01:37:21;13.27;;;7.77;;
4355;SDS011;2191;51.482;7.408;2022-07-21T01:39:54;9.37;;;8.10;;
4355;SDS011;2191;51.482;7.408;2022-07-21T01:42:40;9.40;;;8.00;;
4355;SDS011;2191;51.482;7.408;2022-07-21T01:45:13;13.23;;;9.40;;
4355;SDS011;2191;51.482;7.408;2022-07-21T01:47:44;10.67;;;8.60;;
4355;SDS011;2191;51.482;7.408;2022-07-21T01:50:12;10.80;;;9.70;;
4355;SDS011;2191;51.482;7.408;2022-07-21T01:52:43;16.53;;;10.20;;
4355;SDS011;2191;51.482;7.408;2022-07-21T01:55:11;15.03;;;10.23;;
4355;SDS011;2191;51.482;7.408;2022-07-21T01:57:39;12.87;;;11.47;;
4355;SDS011;2191;51.482;7.408;2022-07-21T02:00:08;16.33;;;11.33;;
4355;SDS011;2191;51.482;7.408;2022-07-21T02:02:36;16.37;;;10.87;;
4355;SDS011;2191;51.482;7.408;2022-07-21T02:05:05;16.13;;;10.80;;
4355;SDS011;2191;51.482;7.408;2022-07-21T02:07:44;14.63;;;10.10;;
4355;SDS011;2191;51.482;7.408;2022-07-21T02:10:14;14.10;;;10.03;;
4355;SDS011;2191;51.482;7.408;2022-07-21T02:12:42;13.30;;;10.50;;
4355;SDS011;2191;51.482;7.408;2022-07-21T02:15:13;14.43;;;11.70;;
4355;SDS011;2191;51.482;7.408;2022-07-21T02:17:41;11.40;;;9.80;;
4355;SDS011;2191;51.482;7.408;2022-07-21T02:20:09;10.30;;;9.27;;
4355;SDS011;2191;51.482;7.408;2022-07-21T02:22:38;11.10;;;8.23;;
4355;SDS011;2191;51.482;7.408;2022-07-21T02:25:16;8.20;;;7.20;;
4355;SDS011;2191;51.482;7.408;2022-07-21T02:27:45;9.43;;;5.90;;
4355;SDS011;2191;51.482;7.408;2022-07-21T02:30:13;10.53;;;7.03;;
4355;SDS011;2191;51.482;7.408;2022-07-21T02:32:41;6.73;;;6.03;;
4355;SDS011;2191;51.482;7.408;2022-07-21T02:35:12;8.03;;;5.83;;
4355;SDS011;2191;51.482;7.408;2022-07-21T02:37:49;9.67;;;6.47;;
4355;SDS011;2191;51.482;7.408;2022-07-21T02:40:31;8.40;;;6.47;;
4355;SDS011;2191;51.482;7.408;2022-07-21T02:43:09;8.57;;;6.00;;
4355;SDS011;2191;51.482;7.408;2022-07-21T02:45:37;8.47;;;5.87;;
4355;SDS011;2191;51.482;7.408;2022-07-21T02:48:12;10.07;;;5.60;;
4355;SDS011;2191;51.482;7.408;2022-07-21T02:50:44;9.57;;;5.73;;
4355;SDS011;2191;51.482;7.408;2022-07-21T02:53:21;7.27;;;5.80;;
4355;SDS011;2191;51.482;7.408;2022-07-21T02:55:52;6.77;;;5.60;;
4355;SDS011;2191;51.482;7.408;2022-07-21T02:58:21;11.27;;;5.90;;
4355;SDS011;2191;51.482;7.408;2022-07-21T03:00:52;7.33;;;6.37;;
4355;SDS011;2191;51.482;7.408;2022-07-21T03:03:29;6.57;;;5.97;;
4355;SDS011;2191;51.482;7.408;2022-07-21T03:06:00;8.97;;;6.73;;
4355;SDS011;2191;51.482;7.408;2022-07-21T03:08:32;8.03;;;7.23;;
4355;SDS011;2191;51.482;7.408;2022-07-21T03:11:09;14.50;;;8.17;;
4355;SDS011;2191;51.482;7.408;2022-07-21T03:13:45;11.90;;;7.90;;
4355;SDS011;2191;51.482;7.408;2022-07-21T03:16:16;8.60;;;7.03;;
4355;SDS011;2191;51.482;7.408;2022-07-21T03:18:49;10.60;;;7.60;;
4355;SDS011;2191;51.482;7.408;2022-07-21T03:21:24;11.17;;;7.97;;
4355;SDS011;2191;51.482;7.408;2022-07-21T03:24:05;11.73;;;7.50;;
4355;SDS011;2191;51.482;7.408;2022-07-21T03:26:33;9.23;;;7.73;;
4355;SDS011;2191;51.482;7.408;2022-07-21T03:29:05;9.13;;;7.73;;
4355;SDS011;2191;51.482;7.408;2022-07-21T03:31:33;8.27;;;7.40;;
4355;SDS011;2191;51.482;7.408;2022-07-21T03:34:00;8.93;;;6.97;;
4355;SDS011;2191;51.482;7.408;2022-07-21T03:36:29;8.10;;;7.30;;
4355;SDS011;2191;51.482;7.408;2022-07-21T03:38:59;9.43;;;7.77;;
4355;SDS011;2191;51.482;7.408;2022-07-21T03:41:28;10.20;;;7.50;;
4355;SDS011;2191;51.482;7.408;2022-07-21T03:43:56;8.27;;;7.37;;
4355;SDS011;2191;51.482;7.408;2022-07-21T03:46:24;10.70;;;7.87;;
4355;SDS011;2191;51.482;7.408;2022-07-21T03:48:55;7.50;;;6.20;;
4355;SDS011;2191;51.482;7.408;2022-07-21T03:51:24;8.70;;;6.87;;
4355;SDS011;2191;51.482;7.408;2022-07-21T03:54:02;8.60;;;7.70;;
4355;SDS011;2191;51.482;7.408;2022-07-21T03:56:31;8.93;;;7.87;;
4355;SDS011;2191;51.482;7.408;2022-07-21T03:59:13;8.93;;;6.77;;
4355;SDS011;2191;51.482;7.408;2022-07-21T04:01:41;7.27;;;6.47;;
4355;SDS011;2191;51.482;7.408;2022-07-21T04:04:09;9.13;;;7.73;;
4355;SDS011;2191;51.482;7.408;2022-07-21T04:06:37;8.50;;;6.93;;
4355;SDS011;2191;51.482;7.408;2022-07-21T04:09:05;9.60;;;6.93;;
4355;SDS011;2191;51.482;7.408;2022-07-21T04:11:34;7.87;;;6.57;;
4355;SDS011;2191;51.482;7.408;2022-07-21T04:14:02;8.10;;;6.33;;
4355;SDS011;2191;51.482;7.408;2022-07-21T04:16:30;11.40;;;6.87;;
4355;SDS011;2191;51.482;7.408;2022-07-21T04:18:58;7.87;;;7.07;;
4355;SDS011;2191;51.482;7.408;2022-07-21T04:21:26;7.60;;;6.90;;
4355;SDS011;2191;51.482;7.408;2022-07-21T04:23:54;6.30;;;5.70;;
4355;SDS011;2191;51.482;7.408;2022-07-21T04:26:25;7.87;;;7.07;;
4355;SDS011;2191;51.482;7.408;2022-07-21T04:28:56;8.80;;;7.13;;
4355;SDS011;2191;51.482;7.408;2022-07-21T04:31:23;8.17;;;6.50;;
4355;SDS011;2191;51.482;7.408;2022-07-21T04:33:54;9.90;;;7.03;;
4355;SDS011;2191;51.482;7.408;2022-07-21T04:36:29;8.87;;;7.50;;
4355;SDS011;2191;51.482;7.408;2022-07-21T04:39:03;8.93;;;7.50;;
4355;SDS011;2191;51.482;7.408;2022-07-21T04:41:50;7.53;;;6.73;;
4355;SDS011;2191;51.482;7.408;2022-07-21T04:44:22;7.40;;;6.70;;
4355;SDS011;2191;51.482;7.408;2022-07-21T04:46:50;10.93;;;7.97;;
4355;SDS011;2191;51.482;7.408;2022-07-21T04:49:28;7.63;;;6.83;;
4355;SDS011;2191;51.482;7.408;2022-07-21T04:51:58;8.93;;;8.00;;
4355;SDS011;2191;51.482;7.408;2022-07-21T04:54:30;7.47;;;6.77;;
4355;SDS011;2191;51.482;7.408;2022-07-21T04:57:06;10.47;;;8.30;;
4355;SDS011;2191;51.482;7.408;2022-07-21T04:59:35;8.97;;;8.07;;
4355;SDS011;2191;51.482;7.408;2022-07-21T05:02:06;11.93;;;9.17;;
4355;SDS011;2191;51.482;7.408;2022-07-21T05:04:34;15.90;;;10.10;;
4355;SDS011;2191;51.482;7.408;2022-07-21T05:07:05;11.23;;;9.80;;
4355;SDS011;2191;51.482;7.408;2022-07-21T05:09:33;13.17;;;10.37;;
4355;SDS011;2191;51.482;7.408;2022-07-21T05:12:02;10.47;;;9.37;;
4355;SDS011;2191;51.482;7.408;2022-07-21T05:14:37;12.67;;;10.57;;
4355;SDS011;2191;51.482;7.408;2022-07-21T05:17:05;13.73;;;11.10;;
4355;SDS011;2191;51.482;7.408;2022-07-21T05:19:33;15.87;;;12.13;;
4355;SDS011;2191;51.482;7.408;2022-07-21T05:22:01;17.93;;;14.30;;
4355;SDS011;2191;51.482;7.408;2022-07-21T05:24:31;13.13;;;10.43;;
4355;SDS011;2191;51.482;7.408;2022-07-21T05:27:02;17.70;;;14.10;;
4355;SDS011;2191;51.482;7.408;2022-07-21T05:29:33;14.13;;;11.67;;
4355;SDS011;2191;51.482;7.408;2022-07-21T05:32:02;16.63;;;13.50;;
4355;SDS011;2191;51.482;7.408;2022-07-21T05:34:30;15.53;;;13.57;;
4355;SDS011;2191;51.482;7.408;2022-07-21T05:37:00;14.97;;;12.27;;
4355;SDS011;2191;51.482;7.408;2022-07-21T05:39:31;14.33;;;12.83;;
4355;SDS011;2191;51.482;7.408;2022-07-21T05:41:59;17.43;;;12.60;;
4355;SDS011;2191;51.482;7.408;2022-07-21T05:44:27;32.73;;;24.00;;
4355;SDS011;2191;51.482;7.408;2022-07-21T05:47:02;15.87;;;12.87;;
4355;SDS011;2191;51.482;7.408;2022-07-21T05:49:43;15.27;;;12.50;;
4355;SDS011;2191;51.482;7.408;2022-07-21T05:52:11;15.20;;;13.57;;
4355;SDS011;2191;51.482;7.408;2022-07-21T05:54:39;15.83;;;13.57;;
4355;SDS011;2191;51.482;7.408;2022-07-21T05:57:12;15.90;;;13.67;;
4355;SDS011;2191;51.482;7.408;2022-07-21T05:59:44;14.63;;;12.90;;
4355;SDS011;2191;51.482;7.408;2022-07-21T06:02:18;16.17;;;13.77;;
4355;SDS011;2191;51.482;7.408;2022-07-21T06:04:49;17.93;;;13.27;;
4355;SDS011;2191;51.482;7.408;2022-07-21T06:07:22;15.83;;;13.70;;
4355;SDS011;2191;51.482;7.408;2022-07-21T06:09:50;18.53;;;14.00;;
4355;SDS011;2191;51.482;7.408;2022-07-21T06:12:28;16.00;;;13.70;;
4355;SDS011;2191;51.482;7.408;2022-07-21T06:14:56;16.97;;;13.87;;
4355;SDS011;2191;51.482;7.408;2022-07-21T06:17:25;15.50;;;13.87;;
4355;SDS011;2191;51.482;7.408;2022-07-21T06:19:57;15.30;;;13.70;;
4355;SDS011;2191;51.482;7.408;2022-07-21T06:22:32;20.80;;;14.50;;
4355;SDS011;2191;51.482;7.408;2022-07-21T06:25:06;16.30;;;14.07;;
4355;SDS011;2191;51.482;7.408;2022-07-21T06:27:48;12.67;;;11.00;;
4355;SDS011;2191;51.482;7.408;2022-07-21T06:30:16;17.63;;;14.67;;
4355;SDS011;2191;51.482;7.408;2022-07-21T06:32:45;16.73;;;14.07;;
4355;SDS011;2191;51.482;7.408;2022-07-21T06:35:15;17.00;;;12.90;;
4355;SDS011;2191;51.482;7.408;2022-07-21T06:37:46;18.87;;;13.93;;
4355;SDS011;2191;51.482;7.408;2022-07-21T06:40:14;17.20;;;14.10;;
4355;SDS011;2191;51.482;7.408;2022-07-21T06:42:42;16.00;;;13.50;;
4355;SDS011;2191;51.482;7.408;2022-07-21T06:45:30;15.00;;;12.43;;
4355;SDS011;2191;51.482;7.408;2022-07-21T06:48:04;15.07;;;13.47;;
4355;SDS011;2191;51.482;7.408;2022-07-21T06:50:33;15.17;;;13.57;;
4355;SDS011;2191;51.482;7.408;2022-07-21T06:53:04;15.20;;;12.43;;
4355;SDS011;2191;51.482;7.408;2022-07-21T06:55:46;17.43;;;14.07;;
4355;SDS011;2191;51.482;7.408;2022-07-21T06:58:28;14.93;;;13.40;;
4355;SDS011;2191;51.482;7.408;2022-07-21T07:01:05;16.07;;;13.80;;
4355;SDS011;2191;51.482;7.408;2022-07-21T07:03:47;18.67;;;14.30;;
4355;SDS011;2191;51.482;7.408;2022-07-21T07:06:15;15.27;;;13.53;;
4355;SDS011;2191;51.482;7.408;2022-07-21T07:08:43;15.17;;;13.10;;
4355;SDS011;2191;51.482;7.408;2022-07-21T07:11:11;14.33;;;12.57;;
4355;SDS011;2191;51.482;7.408;2022-07-21T07:13:42;14.30;;;12.80;;
4355;SDS011;2191;51.482;7.408;2022-07-21T07:16:24;19.40;;;13.80;;
4355;SDS011;2191;51.482;7.408;2022-07-21T07:19:00;15.50;;;12.37;;
4355;SDS011;2191;51.482;7.408;2022-07-21T07:21:30;13.10;;;11.43;;
4355;SDS011;2191;51.482;7.408;2022-07-21T07:24:00;15.00;;;13.33;;
4355;SDS011;2191;51.482;7.408;2022-07-21T07:26:29;17.93;;;14.03;;
4355;SDS011;2191;51.482;7.408;2022-07-21T07:28:57;15.83;;;14.07;;
4355;SDS011;2191;51.482;7.408;2022-07-21T07:31:25;14.67;;;12.97;;
4355;SDS011;2191;51.482;7.408;2022-07-21T07:33:53;13.93;;;11.90;;
4355;SDS011;2191;51.482;7.408;2022-07-21T07:36:25;16.50;;;13.63;;
4355;SDS011;2191;51.482;7.408;2022-07-21T07:38:54;16.70;;;12.47;;
4355;SDS011;2191;51.482;7.408;2022-07-21T07:41:23;16.33;;;14.23;;
4355;SDS011;2191;51.482;7.408;2022-07-21T07:43:55;16.03;;;14.33;;
4355;SDS011;2191;51.482;7.408;2022-07-21T07:46:27;16.53;;;14.83;;
4355;SDS011;2191;51.482;7.408;2022-07-21T07:48:58;15.70;;;13.83;;
4355;SDS011;2191;51.482;7.408;2022-07-21T07:51:38;15.33;;;13.13;;
4355;SDS011;2191;51.482;7.408;2022-07-21T07:54:22;14.90;;;13.27;;
4355;SDS011;2191;51.482;7.408;2022-07-21T07:56:53;15.30;;;12.43;;
4355;SDS011;2191;51.482;7.408;2022-07-21T07:59:21;13.20;;;11.97;;
4355;SDS011;2191;51.482;7.408;2022-07-21T08:01:49;14.47;;;13.07;;
4355;SDS011;2191;51.482;7.408;2022-07-21T08:04:20;14.30;;;11.63;;
4355;SDS011;2191;51.482;7.408;2022-07-21T08:06:59;14.80;;;12.63;;
4355;SDS011;2191;51.482;7.408;2022-07-21T08:09:33;15.57;;;13.97;;
4355;SDS011;2191;51.482;7.408;2022-07-21T08:12:01;15.53;;;12.67;;
4355;SDS011;2191;51.482;7.408;2022-07-21T08:14:29;14.80;;;12.07;;
4355;SDS011;2191;51.482;7.408;2022-07-21T08:17:02;15.20;;;12.67;;
4355;SDS011;2191;51.482;7.408;2022-07-21T08:19:30;14.10;;;12.70;;
4355;SDS011;2191;51.482;7.408;2022-07-21T08:21:59;14.10;;;11.87;;
4355;SDS011;2191;51.482;7.408;2022-07-21T08:24:40;13.30;;;12.00;;
4355;SDS011;2191;51.482;7.408;2022-07-21T08:27:08;11.70;;;10.43;;
4355;SDS011;2191;51.482;7.408;2022-07-21T08:29:36;11.83;;;10.60;;
4355;SDS011;2191;51.482;7.408;2022-07-21T08:32:04;12.60;;;10.33;;
4355;SDS011;2191;51.482;7.408;2022-07-21T08:34:32;10.70;;;9.60;;
4355;SDS011;2191;51.482;7.408;2022-07-21T08:37:01;12.20;;;8.13;;
4355;SDS011;2191;51.482;7.408;2022-07-21T08:39:42;11.30;;;10.20;;
4355;SDS011;2191;51.482;7.408;2022-07-21T08:42:13;10.10;;;8.00;;
4355;SDS011;2191;51.482;7.408;2022-07-21T08:44:44;10.17;;;9.00;;
4355;SDS011;2191;51.482;7.408;2022-07-21T08:47:12;10.60;;;8.60;;
4355;SDS011;2191;51.482;7.408;2022-07-21T08:49:40;9.40;;;8.30;;
4355;SDS011;2191;51.482;7.408;2022-07-21T08:52:09;8.97;;;7.97;;
4355;SDS011;2191;51.482;7.408;2022-07-21T08:54:40;10.70;;;8.27;;
4355;SDS011;2191;51.482;7.408;2022-07-21T08:57:08;7.87;;;7.07;;
4355;SDS011;2191;51.482;7.408;2022-07-21T08:59:36;11.63;;;7.80;;
4355;SDS011;2191;51.482;7.408;2022-07-21T09:02:03;9.90;;;7.93;;
4355;SDS011;2191;51.482;7.408;2022-07-21T09:04:36;8.30;;;7.60;;
4355;SDS011;2191;51.482;7.408;2022-07-21T09:07:17;7.30;;;6.67;;
4355;SDS011;2191;51.482;7.408;2022-07-21T09:09:53;10.10;;;6.90;;
4355;SDS011;2191;51.482;7.408;2022-07-21T09:12:25;7.13;;;5.10;;
4355;SDS011;2191;51.482;7.408;2022-07-21T09:14:56;7.13;;;5.23;;
4355;SDS011;2191;51.482;7.408;2022-07-21T09:17:42;4.80;;;4.40;;
4355;SDS011;2191;51.482;7.408;2022-07-21T09:20:30;6.03;;;5.53;;
4355;SDS011;2191;51.482;7.408;2022-07-21T09:23:04;6.30;;;5.70;;
4355;SDS011;2191;51.482;7.408;2022-07-21T09:25:36;9.90;;;6.10;;
4355;SDS011;2191;51.482;7.408;2022-07-21T09:28:13;8.50;;;6.10;;
4355;SDS011;2191;51.482;7.408;2022-07-21T09:30:56;6.47;;;5.97;;
4355;SDS011;2191;51.482;7.408;2022-07-21T09:33:27;8.83;;;6.83;;
4355;SDS011;2191;51.482;7.408;2022-07-21T09:36:02;7.10;;;6.37;;
4355;SDS011;2191;51.482;7.408;2022-07-21T09:38:33;6.73;;;5.60;;
4355;SDS011;2191;51.482;7.408;2022-07-21T09:41:04;7.57;;;6.40;;
4355;SDS011;2191;51.482;7.408;2022-07-21T09:43:37;9.57;;;6.90;;
4355;SDS011;2191;51.482;7.408;2022-07-21T09:46:19;7.83;;;6.13;;
4355;SDS011;2191;51.482;7.408;2022-07-21T09:48:51;6.90;;;6.10;;
4355;SDS011;2191;51.482;7.408;2022-07-21T09:51:39;11.00;;;7.43;;
4355;SDS011;2191;51.482;7.408;2022-07-21T09:54:11;6.40;;;5.80;;
4355;SDS011;2191;51.482;7.408;2022-07-21T09:56:40;7.17;;;6.53;;
4355;SDS011;2191;51.482;7.408;2022-07-21T09:59:12;9.30;;;7.17;;
4355;SDS011;2191;51.482;7.408;2022-07-21T10:01:45;6.73;;;6.13;;
4355;SDS011;2191;51.482;7.408;2022-07-21T10:04:19;8.50;;;6.20;;
4355;SDS011;2191;51.482;7.408;2022-07-21T10:07:13;12.97;;;6.63;;
4355;SDS011;2191;51.482;7.408;2022-07-21T10:09:46;7.67;;;6.90;;
4355;SDS011;2191;51.482;7.408;2022-07-21T10:12:18;8.90;;;8.00;;
4355;SDS011;2191;51.482;7.408;2022-07-21T10:14:48;13.70;;;7.53;;
4355;SDS011;2191;51.482;7.408;2022-07-21T10:17:17;7.57;;;6.80;;
4355;SDS011;2191;51.482;7.408;2022-07-21T10:19:53;8.50;;;7.63;;
4355;SDS011;2191;51.482;7.408;2022-07-21T10:22:31;13.90;;;8.23;;
4355;SDS011;2191;51.482;7.408;2022-07-21T10:25:09;10.23;;;7.53;;
4355;SDS011;2191;51.482;7.408;2022-07-21T10:27:37;11.50;;;7.40;;
4355;SDS011;2191;51.482;7.408;2022-07-21T10:30:36;8.10;;;7.23;;
4355;SDS011;2191;51.482;7.408;2022-07-21T10:33:17;9.80;;;7.70;;
4355;SDS011;2191;51.482;7.408;2022-07-21T10:35:47;9.40;;;7.10;;
4355;SDS011;2191;51.482;7.408;2022-07-21T10:38:27;9.20;;;8.03;;
4355;SDS011;2191;51.482;7.408;2022-07-21T10:41:01;9.00;;;7.57;;
4355;SDS011;2191;51.482;7.408;2022-07-21T10:43:36;9.77;;;7.00;;
4355;SDS011;2191;51.482;7.408;2022-07-21T10:49:05;12.40;;;8.17;;
4355;SDS011;2191;51.482;7.408;2022-07-21T10:51:37;8.47;;;6.93;;
4355;SDS011;2191;51.482;7.408;2022-07-21T10:54:19;8.37;;;7.40;;
4355;SDS011;2191;51.482;7.408;2022-07-21T10:56:53;9.10;;;7.60;;
4355;SDS011;2191;51.482;7.408;2022-07-21T11:02:51;8.13;;;5.93;;
4355;SDS011;2191;51.482;7.408;2022-07-21T11:05:24;9.43;;;6.87;;
4355;SDS011;2191;51.482;7.408;2022-07-21T11:08:12;9.57;;;7.00;;
4355;SDS011;2191;51.482;7.408;2022-07-21T11:10:47;8.60;;;7.60;;
4355;SDS011;2191;51.482;7.408;2022-07-21T11:13:19;7.47;;;6.70;;
4355;SDS011;2191;51.482;7.408;2022-07-21T11:15:56;8.43;;;6.17;;
4355;SDS011;2191;51.482;7.408;2022-07-21T11:18:28;11.80;;;6.30;;
4355;SDS011;2191;51.482;7.408;2022-07-21T11:21:01;7.37;;;5.70;;
4355;SDS011;2191;51.482;7.408;2022-07-21T11:23:36;11.03;;;6.80;;
4355;SDS011;2191;51.482;7.408;2022-07-21T11:26:05;15.33;;;7.33;;
4355;SDS011;2191;51.482;7.408;2022-07-21T11:28:35;8.87;;;6.20;;
4355;SDS011;2191;51.482;7.408;2022-07-21T11:31:06;7.50;;;5.60;;
4355;SDS011;2191;51.482;7.408;2022-07-21T11:33:36;9.47;;;5.90;;
4355;SDS011;2191;51.482;7.408;2022-07-21T11:36:07;9.13;;;6.00;;
4355;SDS011;2191;51.482;7.408;2022-07-21T11:38:45;10.53;;;7.60;;
4355;SDS011;2191;51.482;7.408;2022-07-21T11:41:38;9.17;;;8.27;;
4355;SDS011;2191;51.482;7.408;2022-07-21T11:44:22;10.17;;;7.53;;
4355;SDS011;2191;51.482;7.408;2022-07-21T11:46:55;8.57;;;7.67;;
4355;SDS011;2191;51.482;7.408;2022-07-21T11:49:24;8.80;;;7.90;;
4355;SDS011;2191;51.482;7.408;2022-07-21T11:51:57;10.30;;;7.10;;
4355;SDS011;2191;51.482;7.408;2022-07-21T11:54:27;9.83;;;7.77;;
4355;SDS011;2191;51.482;7.408;2022-07-21T11:57:01;14.13;;;8.77;;
4355;SDS011;2191;51.482;7.408;2022-07-21T11:59:32;16.03;;;10.40;;
4355;SDS011;2191;51.482;7.408;2022-07-21T12:02:01;13.70;;;9.67;;
4355;SDS011;2191;51.482;7.408;2022-07-21T12:04:40;13.90;;;9.30;;
4355;SDS011;2191;51.482;7.408;2022-07-21T12:07:13;11.13;;;9.80;;
4355;SDS011;2191;51.482;7.408;2022-07-21T12:09:47;11.30;;;8.80;;
4355;SDS011;2191;51.482;7.408;2022-07-21T12:12:27;12.07;;;9.33;;
4355;SDS011;2191;51.482;7.408;2022-07-21T12:15:13;14.60;;;9.23;;
4355;SDS011;2191;51.482;7.408;2022-07-21T12:17:45;10.53;;;8.90;;
4355;SDS011;2191;51.482;7.408;2022-07-21T12:20:27;10.07;;;9.00;;
4355;SDS011;2191;51.482;7.408;2022-07-21T12:22:57;13.80;;;10.27;;
4355;SDS011;2191;51.482;7.408;2022-07-21T12:25:33;12.77;;;10.00;;
4355;SDS011;2191;51.482;7.408;2022-07-21T12:28:02;12.10;;;9.50;;
4355;SDS011;2191;51.482;7.408;2022-07-21T12:30:34;11.07;;;9.83;;
4355;SDS011;2191;51.482;7.408;2022-07-21T12:33:07;17.13;;;12.00;;
4355;SDS011;2191;51.482;7.408;2022-07-21T12:35:36;13.37;;;10.07;;
4355;SDS011;2191;51.482;7.408;2022-07-21T12:38:06;11.30;;;9.77;;
4355;SDS011;2191;51.482;7.408;2022-07-21T12:40:37;12.03;;;10.00;;
4355;SDS011;2191;51.482;7.408;2022-07-21T12:43:26;12.80;;;11.47;;
4355;SDS011;2191;51.482;7.408;2022-07-21T12:45:57;13.00;;;10.90;;
4355;SDS011;2191;51.482;7.408;2022-07-21T12:48:27;12.63;;;9.20;;
4355;SDS011;2191;51.482;7.408;2022-07-21T12:50:58;11.87;;;10.60;;
4355;SDS011;2191;51.482;7.408;2022-07-21T12:53:31;11.90;;;7.43;;
4355;SDS011;2191;51.482;7.408;2022-07-21T12:56:01;8.53;;;6.03;;
4355;SDS011;2191;51.482;7.408;2022-07-21T12:58:29;9.57;;;6.30;;
4355;SDS011;2191;51.482;7.408;2022-07-21T13:00:58;6.83;;;6.23;;
4355;SDS011;2191;51.482;7.408;2022-07-21T13:03:34;7.90;;;6.27;;
4355;SDS011;2191;51.482;7.408;2022-07-21T13:06:03;6.73;;;5.90;;
4355;SDS011;2191;51.482;7.408;2022-07-21T13:08:35;6.83;;;6.13;;
4355;SDS011;2191;51.482;7.408;2022-07-21T13:11:04;6.13;;;5.53;;
4355;SDS011;2191;51.482;7.408;2022-07-21T13:13:42;8.03;;;6.40;;
4355;SDS011;2191;51.482;7.408;2022-07-21T13:16:14;6.13;;;5.53;;
4355;SDS011;2191;51.482;7.408;2022-07-21T13:18:43;7.97;;;5.77;;
4355;SDS011;2191;51.482;7.408;2022-07-21T13:21:12;6.97;;;6.30;;
4355;SDS011;2191;51.482;7.408;2022-07-21T13:23:40;6.57;;;5.97;;
4355;SDS011;2191;51.482;7.408;2022-07-21T13:26:07;7.67;;;6.30;;
4355;SDS011;2191;51.482;7.408;2022-07-21T13:28:35;9.57;;;5.90;;
4355;SDS011;2191;51.482;7.408;2022-07-21T13:31:07;5.87;;;5.37;;
4355;SDS011;2191;51.482;7.408;2022-07-21T13:33:38;6.63;;;5.97;;
4355;SDS011;2191;51.482;7.408;2022-07-21T13:36:07;6.80;;;6.20;;
4355;SDS011;2191;51.482;7.408;2022-07-21T13:38:40;5.20;;;4.80;;
4355;SDS011;2191;51.482;7.408;2022-07-21T13:41:08;6.20;;;5.50;;
4355;SDS011;2191;51.482;7.408;2022-07-21T13:44:10;7.30;;;5.80;;
4355;SDS011;2191;51.482;7.408;2022-07-21T13:46:41;5.43;;;4.90;;
4355;SDS011;2191;51.482;7.408;2022-07-21T13:49:10;5.40;;;4.77;;
4355;SDS011;2191;51.482;7.408;2022-07-21T13:51:41;5.03;;;4.50;;
4355;SDS011;2191;51.482;7.408;2022-07-21T13:54:09;6.07;;;3.80;;
4355;SDS011;2191;51.482;7.408;2022-07-21T13:56:40;3.90;;;3.50;;
4355;SDS011;2191;51.482;7.408;2022-07-21T13:59:08;4.10;;;3.70;;
4355;SDS011;2191;51.482;7.408;2022-07-21T14:01:37;4.10;;;3.07;;
4355;SDS011;2191;51.482;7.408;2022-07-21T14:04:08;3.53;;;3.23;;
4355;SDS011;2191;51.482;7.408;2022-07-21T14:06:37;4.80;;;3.60;;
4355;SDS011;2191;51.482;7.408;2022-07-21T14:09:08;2.80;;;2.60;;
4355;SDS011;2191;51.482;7.408;2022-07-21T14:11:38;3.93;;;3.53;;
4355;SDS011;2191;51.482;7.408;2022-07-21T14:14:06;4.90;;;3.30;;
4355;SDS011;2191;51.482;7.408;2022-07-21T14:16:34;5.10;;;4.00;;
4355;SDS011;2191;51.482;7.408;2022-07-21T14:19:05;4.33;;;3.70;;
4355;SDS011;2191;51.482;7.408;2022-07-21T14:21:33;6.47;;;5.87;;
4355;SDS011;2191;51.482;7.408;2022-07-21T14:24:12;8.03;;;7.20;;
4355;SDS011;2191;51.482;7.408;2022-07-21T14:26:57;7.73;;;6.93;;
4355;SDS011;2191;51.482;7.408;2022-07-21T14:29:26;11.80;;;8.20;;
4355;SDS011;2191;51.482;7.408;2022-07-21T14:31:56;9.53;;;7.50;;
4355;SDS011;2191;51.482;7.408;2022-07-21T14:34:25;9.30;;;8.40;;
4355;SDS011;2191;51.482;7.408;2022-07-21T14:36:56;8.43;;;7.53;;
4355;SDS011;2191;51.482;7.408;2022-07-21T14:39:31;12.70;;;8.73;;
4355;SDS011;2191;51.482;7.408;2022-07-21T14:41:59;11.00;;;8.80;;
4355;SDS011;2191;51.482;7.408;2022-07-21T14:44:29;11.13;;;8.90;;
4355;SDS011;2191;51.482;7.408;2022-07-21T14:46:59;10.93;;;9.73;;
4355;SDS011;2191;51.482;7.408;2022-07-21T14:49:30;11.70;;;8.20;;
4355;SDS011;2191;51.482;7.408;2022-07-21T14:51:57;8.33;;;7.20;;
4355;SDS011;2191;51.482;7.408;2022-07-21T14:54:31;9.60;;;7.03;;
4355;SDS011;2191;51.482;7.408;2022-07-21T14:56:59;8.90;;;7.47;;
4355;SDS011;2191;51.482;7.408;2022-07-21T14:59:39;7.60;;;5.77;;
4355;SDS011;2191;51.482;7.408;2022-07-21T15:02:14;7.50;;;6.50;;
4355;SDS011;2191;51.482;7.408;2022-07-21T15:04:47;6.20;;;5.27;;
4355;SDS011;2191;51.482;7.408;2022-07-21T15:07:15;6.40;;;5.80;;
4355;SDS011;2191;51.482;7.408;2022-07-21T15:10:00;8.13;;;6.90;;
4355;SDS011;2191;51.482;7.408;2022-07-21T15:12:29;8.27;;;7.03;;
4355;SDS011;2191;51.482;7.408;2022-07-21T15:14:57;13.00;;;9.87;;
4355;SDS011;2191;51.482;7.408;2022-07-21T15:17:25;11.27;;;9.60;;
4355;SDS011;2191;51.482;7.408;2022-07-21T15:19:56;13.27;;;11.80;;
4355;SDS011;2191;51.482;7.408;2022-07-21T15:22:25;11.00;;;9.90;;
4355;SDS011;2191;51.482;7.408;2022-07-21T15:24:55;11.73;;;10.63;;
4355;SDS011;2191;51.482;7.408;2022-07-21T15:27:25;12.73;;;11.43;;
4355;SDS011;2191;51.482;7.408;2022-07-21T15:29:53;13.80;;;11.70;;
4355;SDS011;2191;51.482;7.408;2022-07-21T15:32:22;12.07;;;10.83;;
4355;SDS011;2191;51.482;7.408;2022-07-21T15:34:57;10.10;;;8.57;;
4355;SDS011;2191;51.482;7.408;2022-07-21T15:37:25;11.77;;;8.60;;
4355;SDS011;2191;51.482;7.408;2022-07-21T15:39:59;12.60;;;8.80;;